sensor_id;sensor_type;location;lat;lon;timestamp;P1;durP1;ratioP1;P2;durP2;ratioP2
13374;SDS011;6756;51.354;15.754;2023-02-28T00:02:15;40.10;;;20.50;;
13374;SDS011;6756;51.354;15.754;2023-02-28T00:06:17;38.93;;;19.03;;
13374;SDS011;6756;51.354;15.754;2023-02-28T00:10:19;33.23;;;17.97;;
13374;SDS011;6756;51.354;15.754;2023-02-28T00:14:22;37.60;;;18.90;;
13374;SDS011;6756;51.354;15.754;2023-02-28T00:18:23;35.23;;;18.40;;
13374;SDS011;6756;51.354;15.754;2023-02-28T00:22:24;38.17;;;18.57;;
13374;SDS011;6756;51.354;15.754;2023-02-28T00:26:25;36.03;;;17.87;;
13374;SDS011;6756;51.354;15.754;2023-02-28T00:30:26;35.83;;;18.07;;
13374;SDS011;6756;51.354;15.754;2023-02-28T00:34:26;35.33;;;16.90;;
13374;SDS011;6756;51.354;15.754;2023-02-28T00:38:27;33.67;;;16.30;;
13374;SDS011;6756;51.354;15.754;2023-02-28T00:42:28;35.47;;;16.37;;
13374;SDS011;6756;51.354;15.754;2023-02-28T00:46:29;31.07;;;15.67;;
13374;SDS011;6756;51.354;15.754;2023-02-28T00:50:30;28.83;;;14.37;;
13374;SDS011;6756;51.354;15.754;2023-02-28T00:54:31;26.37;;;13.47;;
13374;SDS011;6756;51.354;15.754;2023-02-28T00:58:31;23.47;;;12.53;;
13374;SDS011;6756;51.354;15.754;2023-02-28T01:02:32;23.67;;;11.20;;
13374;SDS011;6756;51.354;15.754;2023-02-28T01:06:33;19.60;;;11.40;;
13374;SDS011;6756;51.354;15.754;2023-02-28T01:10:34;25.33;;;11.97;;
13374;SDS011;6756;51.354;15.754;2023-02-28T01:14:36;25.80;;;13.63;;
13374;SDS011;6756;51.354;15.754;2023-02-28T01:18:37;33.53;;;14.77;;
13374;SDS011;6756;51.354;15.754;2023-02-28T01:22:38;26.57;;;13.30;;
13374;SDS011;6756;51.354;15.754;2023-02-28T01:26:40;27.30;;;13.00;;
13374;SDS011;6756;51.354;15.754;2023-02-28T01:30:40;23.47;;;11.70;;
13374;SDS011;6756;51.354;15.754;2023-02-28T01:34:41;24.73;;;12.60;;
13374;SDS011;6756;51.354;15.754;2023-02-28T01:38:42;24.83;;;11.53;;
13374;SDS011;6756;51.354;15.754;2023-02-28T01:42:44;32.87;;;15.37;;
13374;SDS011;6756;51.354;15.754;2023-02-28T01:46:44;29.00;;;14.27;;
13374;SDS011;6756;51.354;15.754;2023-02-28T01:50:45;26.00;;;13.70;;
13374;SDS011;6756;51.354;15.754;2023-02-28T01:54:59;28.93;;;14.63;;
13374;SDS011;6756;51.354;15.754;2023-02-28T01:59:02;25.97;;;13.47;;
13374;SDS011;6756;51.354;15.754;2023-02-28T02:03:08;22.77;;;11.67;;
13374;SDS011;6756;51.354;15.754;2023-02-28T02:07:12;23.23;;;11.67;;
13374;SDS011;6756;51.354;15.754;2023-02-28T02:11:14;20.17;;;10.37;;
13374;SDS011;6756;51.354;15.754;2023-02-28T02:15:20;20.10;;;10.23;;
13374;SDS011;6756;51.354;15.754;2023-02-28T02:28:28;21.67;;;9.60;;
13374;SDS011;6756;51.354;15.754;2023-02-28T02:41:29;18.57;;;9.30;;
13374;SDS011;6756;51.354;15.754;2023-02-28T02:49:47;20.13;;;9.83;;
13374;SDS011;6756;51.354;15.754;2023-02-28T02:53:52;14.80;;;8.53;;
13374;SDS011;6756;51.354;15.754;2023-02-28T02:58:16;17.20;;;8.07;;
13374;SDS011;6756;51.354;15.754;2023-02-28T03:02:20;14.10;;;8.27;;
13374;SDS011;6756;51.354;15.754;2023-02-28T03:06:22;15.67;;;8.10;;
13374;SDS011;6756;51.354;15.754;2023-02-28T03:11:06;14.40;;;8.23;;
13374;SDS011;6756;51.354;15.754;2023-02-28T03:23:21;18.03;;;8.63;;
13374;SDS011;6756;51.354;15.754;2023-02-28T03:32:00;15.50;;;8.33;;
13374;SDS011;6756;51.354;15.754;2023-02-28T03:36:12;17.10;;;8.57;;
13374;SDS011;6756;51.354;15.754;2023-02-28T03:40:19;14.37;;;7.67;;
13374;SDS011;6756;51.354;15.754;2023-02-28T03:44:24;15.37;;;7.73;;
13374;SDS011;6756;51.354;15.754;2023-02-28T03:48:35;16.20;;;8.67;;
13374;SDS011;6756;51.354;15.754;2023-02-28T03:52:50;18.53;;;8.27;;
13374;SDS011;6756;51.354;15.754;2023-02-28T03:57:21;14.73;;;8.50;;
13374;SDS011;6756;51.354;15.754;2023-02-28T04:01:40;14.17;;;7.73;;
13374;SDS011;6756;51.354;15.754;2023-02-28T04:05:54;18.30;;;8.53;;
13374;SDS011;6756;51.354;15.754;2023-02-28T04:09:56;15.67;;;8.63;;
13374;SDS011;6756;51.354;15.754;2023-02-28T04:13:57;16.43;;;8.90;;
13374;SDS011;6756;51.354;15.754;2023-02-28T04:17:58;17.80;;;8.17;;
13374;SDS011;6756;51.354;15.754;2023-02-28T04:21:59;17.90;;;9.33;;
13374;SDS011;6756;51.354;15.754;2023-02-28T04:26:00;13.30;;;8.03;;
13374;SDS011;6756;51.354;15.754;2023-02-28T04:30:01;15.23;;;7.97;;
13374;SDS011;6756;51.354;15.754;2023-02-28T04:34:02;14.50;;;7.07;;
13374;SDS011;6756;51.354;15.754;2023-02-28T04:38:02;16.23;;;8.47;;
13374;SDS011;6756;51.354;15.754;2023-02-28T04:42:03;13.53;;;8.00;;
13374;SDS011;6756;51.354;15.754;2023-02-28T04:46:04;13.90;;;7.10;;
13374;SDS011;6756;51.354;15.754;2023-02-28T04:50:06;16.77;;;7.60;;
13374;SDS011;6756;51.354;15.754;2023-02-28T04:54:07;19.23;;;8.97;;
13374;SDS011;6756;51.354;15.754;2023-02-28T04:58:08;19.27;;;9.67;;
13374;SDS011;6756;51.354;15.754;2023-02-28T05:02:09;21.43;;;10.93;;
13374;SDS011;6756;51.354;15.754;2023-02-28T05:06:10;19.57;;;10.50;;
13374;SDS011;6756;51.354;15.754;2023-02-28T05:10:12;18.17;;;10.17;;
13374;SDS011;6756;51.354;15.754;2023-02-28T05:14:13;20.87;;;11.53;;
13374;SDS011;6756;51.354;15.754;2023-02-28T05:18:14;29.33;;;14.90;;
13374;SDS011;6756;51.354;15.754;2023-02-28T05:22:15;30.83;;;15.00;;
13374;SDS011;6756;51.354;15.754;2023-02-28T05:26:16;31.47;;;14.60;;
13374;SDS011;6756;51.354;15.754;2023-02-28T05:30:17;34.13;;;16.33;;
13374;SDS011;6756;51.354;15.754;2023-02-28T05:34:18;32.43;;;15.53;;
13374;SDS011;6756;51.354;15.754;2023-02-28T05:38:19;36.47;;;16.63;;
13374;SDS011;6756;51.354;15.754;2023-02-28T05:42:20;28.73;;;14.87;;
13374;SDS011;6756;51.354;15.754;2023-02-28T05:46:20;28.67;;;14.60;;
13374;SDS011;6756;51.354;15.754;2023-02-28T05:50:21;29.10;;;14.17;;
13374;SDS011;6756;51.354;15.754;2023-02-28T05:54:22;31.20;;;14.93;;
13374;SDS011;6756;51.354;15.754;2023-02-28T05:58:23;34.27;;;17.87;;
13374;SDS011;6756;51.354;15.754;2023-02-28T06:02:25;37.23;;;18.43;;
13374;SDS011;6756;51.354;15.754;2023-02-28T06:06:27;34.23;;;17.53;;
13374;SDS011;6756;51.354;15.754;2023-02-28T06:10:29;32.53;;;15.77;;
13374;SDS011;6756;51.354;15.754;2023-02-28T06:14:33;34.97;;;15.17;;
13374;SDS011;6756;51.354;15.754;2023-02-28T06:18:34;30.93;;;14.90;;
13374;SDS011;6756;51.354;15.754;2023-02-28T06:22:36;29.03;;;13.97;;
13374;SDS011;6756;51.354;15.754;2023-02-28T06:26:36;24.53;;;12.50;;
13374;SDS011;6756;51.354;15.754;2023-02-28T06:30:38;27.07;;;13.43;;
13374;SDS011;6756;51.354;15.754;2023-02-28T06:34:39;25.43;;;13.67;;
13374;SDS011;6756;51.354;15.754;2023-02-28T06:38:40;26.13;;;13.00;;
13374;SDS011;6756;51.354;15.754;2023-02-28T06:42:42;22.80;;;12.47;;
13374;SDS011;6756;51.354;15.754;2023-02-28T06:46:44;24.00;;;11.77;;
13374;SDS011;6756;51.354;15.754;2023-02-28T06:50:45;22.63;;;12.37;;
13374;SDS011;6756;51.354;15.754;2023-02-28T06:54:46;25.03;;;12.03;;
13374;SDS011;6756;51.354;15.754;2023-02-28T06:58:59;26.20;;;13.00;;
13374;SDS011;6756;51.354;15.754;2023-02-28T07:03:00;24.07;;;13.17;;
13374;SDS011;6756;51.354;15.754;2023-02-28T07:07:01;25.77;;;15.00;;
13374;SDS011;6756;51.354;15.754;2023-02-28T07:11:02;29.53;;;15.23;;
13374;SDS011;6756;51.354;15.754;2023-02-28T07:15:04;34.40;;;19.10;;
13374;SDS011;6756;51.354;15.754;2023-02-28T07:19:06;33.57;;;18.13;;
13374;SDS011;6756;51.354;15.754;2023-02-28T07:23:09;34.40;;;18.53;;
13374;SDS011;6756;51.354;15.754;2023-02-28T07:27:10;33.73;;;18.47;;
13374;SDS011;6756;51.354;15.754;2023-02-28T07:31:11;29.97;;;17.33;;
13374;SDS011;6756;51.354;15.754;2023-02-28T07:35:16;33.07;;;15.53;;
13374;SDS011;6756;51.354;15.754;2023-02-28T07:39:17;28.60;;;15.10;;
13374;SDS011;6756;51.354;15.754;2023-02-28T07:43:18;30.73;;;16.27;;
13374;SDS011;6756;51.354;15.754;2023-02-28T07:47:18;29.37;;;13.60;;
13374;SDS011;6756;51.354;15.754;2023-02-28T07:51:20;22.60;;;11.70;;
13374;SDS011;6756;51.354;15.754;2023-02-28T07:55:22;25.87;;;12.60;;
13374;SDS011;6756;51.354;15.754;2023-02-28T07:59:23;22.63;;;11.37;;
13374;SDS011;6756;51.354;15.754;2023-02-28T08:03:24;25.03;;;11.47;;
13374;SDS011;6756;51.354;15.754;2023-02-28T08:07:25;24.63;;;11.93;;
13374;SDS011;6756;51.354;15.754;2023-02-28T08:11:25;29.07;;;15.90;;
13374;SDS011;6756;51.354;15.754;2023-02-28T08:15:26;22.00;;;12.83;;
13374;SDS011;6756;51.354;15.754;2023-02-28T08:19:30;38.90;;;22.17;;
13374;SDS011;6756;51.354;15.754;2023-02-28T08:23:31;21.97;;;12.47;;
13374;SDS011;6756;51.354;15.754;2023-02-28T08:27:33;14.53;;;8.60;;
13374;SDS011;6756;51.354;15.754;2023-02-28T08:31:34;15.60;;;8.13;;
13374;SDS011;6756;51.354;15.754;2023-02-28T08:35:36;14.37;;;7.87;;
13374;SDS011;6756;51.354;15.754;2023-02-28T08:39:37;9.87;;;5.87;;
13374;SDS011;6756;51.354;15.754;2023-02-28T08:43:38;9.57;;;5.87;;
13374;SDS011;6756;51.354;15.754;2023-02-28T08:47:40;10.93;;;5.47;;
13374;SDS011;6756;51.354;15.754;2023-02-28T08:51:41;6.73;;;3.73;;
13374;SDS011;6756;51.354;15.754;2023-02-28T08:55:42;5.43;;;3.57;;
13374;SDS011;6756;51.354;15.754;2023-02-28T08:59:42;6.83;;;4.43;;
13374;SDS011;6756;51.354;15.754;2023-02-28T09:03:43;6.57;;;4.63;;
13374;SDS011;6756;51.354;15.754;2023-02-28T09:07:46;6.30;;;3.90;;
13374;SDS011;6756;51.354;15.754;2023-02-28T09:11:46;7.80;;;4.10;;
13374;SDS011;6756;51.354;15.754;2023-02-28T09:15:47;8.93;;;4.90;;
13374;SDS011;6756;51.354;15.754;2023-02-28T09:19:48;14.13;;;8.87;;
13374;SDS011;6756;51.354;15.754;2023-02-28T09:23:49;14.17;;;7.07;;
13374;SDS011;6756;51.354;15.754;2023-02-28T09:27:51;11.60;;;5.83;;
13374;SDS011;6756;51.354;15.754;2023-02-28T09:31:52;16.00;;;6.67;;
13374;SDS011;6756;51.354;15.754;2023-02-28T09:35:57;8.93;;;5.30;;
13374;SDS011;6756;51.354;15.754;2023-02-28T09:40:00;9.97;;;5.70;;
13374;SDS011;6756;51.354;15.754;2023-02-28T09:44:01;12.73;;;6.50;;
13374;SDS011;6756;51.354;15.754;2023-02-28T09:48:04;18.57;;;8.23;;
13374;SDS011;6756;51.354;15.754;2023-02-28T09:52:13;12.70;;;7.37;;
13374;SDS011;6756;51.354;15.754;2023-02-28T10:00:39;7.27;;;5.13;;
13374;SDS011;6756;51.354;15.754;2023-02-28T10:04:46;14.97;;;7.43;;
13374;SDS011;6756;51.354;15.754;2023-02-28T10:09:03;11.37;;;5.90;;
13374;SDS011;6756;51.354;15.754;2023-02-28T10:17:38;10.93;;;4.03;;
13374;SDS011;6756;51.354;15.754;2023-02-28T10:21:46;14.10;;;7.27;;
13374;SDS011;6756;51.354;15.754;2023-02-28T10:25:58;9.90;;;6.00;;
13374;SDS011;6756;51.354;15.754;2023-02-28T10:30:01;7.50;;;4.50;;
13374;SDS011;6756;51.354;15.754;2023-02-28T10:34:02;7.90;;;4.30;;
13374;SDS011;6756;51.354;15.754;2023-02-28T10:38:05;5.57;;;3.47;;
13374;SDS011;6756;51.354;15.754;2023-02-28T10:42:26;7.67;;;5.03;;
13374;SDS011;6756;51.354;15.754;2023-02-28T10:46:28;4.97;;;3.57;;
13374;SDS011;6756;51.354;15.754;2023-02-28T10:50:39;6.00;;;4.03;;
13374;SDS011;6756;51.354;15.754;2023-02-28T10:54:45;5.97;;;4.20;;
13374;SDS011;6756;51.354;15.754;2023-02-28T10:59:02;5.47;;;3.77;;
13374;SDS011;6756;51.354;15.754;2023-02-28T11:03:31;4.60;;;3.40;;
13374;SDS011;6756;51.354;15.754;2023-02-28T11:07:33;6.27;;;4.70;;
13374;SDS011;6756;51.354;15.754;2023-02-28T11:11:42;5.37;;;3.30;;
13374;SDS011;6756;51.354;15.754;2023-02-28T11:15:55;6.23;;;3.47;;
13374;SDS011;6756;51.354;15.754;2023-02-28T11:20:04;4.90;;;3.30;;
13374;SDS011;6756;51.354;15.754;2023-02-28T11:24:20;19.37;;;7.77;;
13374;SDS011;6756;51.354;15.754;2023-02-28T11:28:33;13.23;;;7.40;;
13374;SDS011;6756;51.354;15.754;2023-02-28T11:32:36;10.93;;;5.23;;
13374;SDS011;6756;51.354;15.754;2023-02-28T11:36:54;4.57;;;3.70;;
13374;SDS011;6756;51.354;15.754;2023-02-28T11:49:28;6.03;;;3.87;;
13374;SDS011;6756;51.354;15.754;2023-02-28T11:53:48;4.47;;;2.93;;
13374;SDS011;6756;51.354;15.754;2023-02-28T12:07:22;8.77;;;4.23;;
13374;SDS011;6756;51.354;15.754;2023-02-28T12:11:53;5.13;;;3.57;;
13374;SDS011;6756;51.354;15.754;2023-02-28T12:29:04;21.43;;;9.30;;
13374;SDS011;6756;51.354;15.754;2023-02-28T12:33:14;12.67;;;5.90;;
13374;SDS011;6756;51.354;15.754;2023-02-28T12:37:23;10.93;;;5.93;;
13374;SDS011;6756;51.354;15.754;2023-02-28T12:41:41;6.37;;;4.10;;
13374;SDS011;6756;51.354;15.754;2023-02-28T12:45:50;6.30;;;3.43;;
13374;SDS011;6756;51.354;15.754;2023-02-28T12:49:58;8.40;;;4.60;;
13374;SDS011;6756;51.354;15.754;2023-02-28T13:07:05;7.87;;;4.10;;
13374;SDS011;6756;51.354;15.754;2023-02-28T13:11:20;42.33;;;20.60;;
13374;SDS011;6756;51.354;15.754;2023-02-28T13:15:34;12.20;;;7.93;;
13374;SDS011;6756;51.354;15.754;2023-02-28T13:19:41;8.07;;;4.23;;
13374;SDS011;6756;51.354;15.754;2023-02-28T13:27:53;9.20;;;5.27;;
13374;SDS011;6756;51.354;15.754;2023-02-28T13:36:07;19.67;;;11.33;;
13374;SDS011;6756;51.354;15.754;2023-02-28T13:40:31;7.67;;;4.93;;
13374;SDS011;6756;51.354;15.754;2023-02-28T13:49:24;6.17;;;4.03;;
13374;SDS011;6756;51.354;15.754;2023-02-28T13:58:16;9.27;;;5.10;;
13374;SDS011;6756;51.354;15.754;2023-02-28T14:06:58;9.87;;;5.37;;
13374;SDS011;6756;51.354;15.754;2023-02-28T14:11:04;8.63;;;4.80;;
13374;SDS011;6756;51.354;15.754;2023-02-28T14:15:25;7.47;;;4.07;;
13374;SDS011;6756;51.354;15.754;2023-02-28T14:19:33;5.30;;;3.67;;
13374;SDS011;6756;51.354;15.754;2023-02-28T14:27:43;19.97;;;7.80;;
13374;SDS011;6756;51.354;15.754;2023-02-28T14:32:05;36.00;;;18.30;;
13374;SDS011;6756;51.354;15.754;2023-02-28T14:40:35;11.60;;;6.07;;
13374;SDS011;6756;51.354;15.754;2023-02-28T14:44:38;8.50;;;4.50;;
13374;SDS011;6756;51.354;15.754;2023-02-28T14:48:39;6.73;;;4.97;;
13374;SDS011;6756;51.354;15.754;2023-02-28T14:52:42;8.77;;;5.77;;
13374;SDS011;6756;51.354;15.754;2023-02-28T14:56:43;5.97;;;4.30;;
13374;SDS011;6756;51.354;15.754;2023-02-28T15:00:49;15.07;;;8.57;;
13374;SDS011;6756;51.354;15.754;2023-02-28T15:04:58;17.63;;;8.73;;
13374;SDS011;6756;51.354;15.754;2023-02-28T15:09:13;14.40;;;7.50;;
13374;SDS011;6756;51.354;15.754;2023-02-28T15:13:18;13.93;;;6.97;;
13374;SDS011;6756;51.354;15.754;2023-02-28T15:17:21;14.17;;;8.53;;
13374;SDS011;6756;51.354;15.754;2023-02-28T15:21:26;10.87;;;7.20;;
13374;SDS011;6756;51.354;15.754;2023-02-28T15:25:33;23.30;;;12.50;;
13374;SDS011;6756;51.354;15.754;2023-02-28T15:29:45;15.67;;;9.43;;
13374;SDS011;6756;51.354;15.754;2023-02-28T15:33:57;31.83;;;19.13;;
13374;SDS011;6756;51.354;15.754;2023-02-28T15:42:19;22.13;;;11.00;;
13374;SDS011;6756;51.354;15.754;2023-02-28T15:46:22;52.63;;;29.93;;
13374;SDS011;6756;51.354;15.754;2023-02-28T15:50:23;24.83;;;13.47;;
13374;SDS011;6756;51.354;15.754;2023-02-28T15:54:27;12.13;;;7.23;;
13374;SDS011;6756;51.354;15.754;2023-02-28T15:58:32;19.87;;;10.80;;
13374;SDS011;6756;51.354;15.754;2023-02-28T16:02:36;23.43;;;11.60;;
13374;SDS011;6756;51.354;15.754;2023-02-28T16:10:44;27.13;;;13.87;;
13374;SDS011;6756;51.354;15.754;2023-02-28T16:14:51;34.33;;;16.40;;
13374;SDS011;6756;51.354;15.754;2023-02-28T16:18:54;30.70;;;16.40;;
13374;SDS011;6756;51.354;15.754;2023-02-28T16:22:55;25.77;;;14.33;;
13374;SDS011;6756;51.354;15.754;2023-02-28T16:26:56;72.03;;;37.53;;
13374;SDS011;6756;51.354;15.754;2023-02-28T16:30:59;70.47;;;37.50;;
13374;SDS011;6756;51.354;15.754;2023-02-28T16:35:05;55.50;;;31.90;;
13374;SDS011;6756;51.354;15.754;2023-02-28T16:39:09;58.93;;;25.40;;
13374;SDS011;6756;51.354;15.754;2023-02-28T16:43:15;48.70;;;22.93;;
13374;SDS011;6756;51.354;15.754;2023-02-28T16:47:19;111.17;;;37.73;;
13374;SDS011;6756;51.354;15.754;2023-02-28T16:51:20;136.47;;;45.33;;
13374;SDS011;6756;51.354;15.754;2023-02-28T16:55:24;109.80;;;41.50;;
13374;SDS011;6756;51.354;15.754;2023-02-28T16:59:26;71.00;;;27.53;;
13374;SDS011;6756;51.354;15.754;2023-02-28T17:03:28;42.17;;;18.50;;
13374;SDS011;6756;51.354;15.754;2023-02-28T17:07:29;26.20;;;11.07;;
13374;SDS011;6756;51.354;15.754;2023-02-28T17:11:30;12.90;;;6.60;;
13374;SDS011;6756;51.354;15.754;2023-02-28T17:15:32;8.63;;;4.80;;
13374;SDS011;6756;51.354;15.754;2023-02-28T17:19:33;8.60;;;4.53;;
13374;SDS011;6756;51.354;15.754;2023-02-28T17:23:36;8.30;;;4.30;;
13374;SDS011;6756;51.354;15.754;2023-02-28T17:27:37;7.63;;;4.13;;
13374;SDS011;6756;51.354;15.754;2023-02-28T17:31:37;9.37;;;4.20;;
13374;SDS011;6756;51.354;15.754;2023-02-28T17:35:39;9.13;;;4.57;;
13374;SDS011;6756;51.354;15.754;2023-02-28T17:39:40;6.87;;;3.77;;
13374;SDS011;6756;51.354;15.754;2023-02-28T17:43:41;6.10;;;4.03;;
13374;SDS011;6756;51.354;15.754;2023-02-28T17:47:43;8.77;;;4.67;;
13374;SDS011;6756;51.354;15.754;2023-02-28T17:51:46;8.83;;;4.73;;
13374;SDS011;6756;51.354;15.754;2023-02-28T17:55:48;8.97;;;4.93;;
13374;SDS011;6756;51.354;15.754;2023-02-28T17:59:51;7.50;;;4.47;;
13374;SDS011;6756;51.354;15.754;2023-02-28T18:03:52;6.83;;;4.10;;
13374;SDS011;6756;51.354;15.754;2023-02-28T18:07:54;8.50;;;4.93;;
13374;SDS011;6756;51.354;15.754;2023-02-28T18:11:56;5.53;;;4.00;;
13374;SDS011;6756;51.354;15.754;2023-02-28T18:15:57;7.03;;;3.87;;
13374;SDS011;6756;51.354;15.754;2023-02-28T18:19:58;8.00;;;4.40;;
13374;SDS011;6756;51.354;15.754;2023-02-28T18:23:59;8.07;;;4.87;;
13374;SDS011;6756;51.354;15.754;2023-02-28T18:28:00;11.63;;;5.53;;
13374;SDS011;6756;51.354;15.754;2023-02-28T18:32:01;16.13;;;8.23;;
13374;SDS011;6756;51.354;15.754;2023-02-28T18:36:02;25.40;;;11.17;;
13374;SDS011;6756;51.354;15.754;2023-02-28T18:40:04;22.33;;;9.43;;
13374;SDS011;6756;51.354;15.754;2023-02-28T18:44:06;19.80;;;9.67;;
13374;SDS011;6756;51.354;15.754;2023-02-28T18:48:07;18.80;;;9.23;;
13374;SDS011;6756;51.354;15.754;2023-02-28T18:52:08;14.43;;;7.30;;
13374;SDS011;6756;51.354;15.754;2023-02-28T18:56:09;15.17;;;7.03;;
13374;SDS011;6756;51.354;15.754;2023-02-28T19:00:13;9.60;;;5.57;;
13374;SDS011;6756;51.354;15.754;2023-02-28T19:04:18;14.07;;;6.60;;
13374;SDS011;6756;51.354;15.754;2023-02-28T19:08:19;14.80;;;5.87;;
13374;SDS011;6756;51.354;15.754;2023-02-28T19:12:20;12.23;;;5.80;;
13374;SDS011;6756;51.354;15.754;2023-02-28T19:16:21;15.33;;;7.27;;
13374;SDS011;6756;51.354;15.754;2023-02-28T19:20:22;13.93;;;7.93;;
13374;SDS011;6756;51.354;15.754;2023-02-28T19:24:23;19.17;;;9.83;;
13374;SDS011;6756;51.354;15.754;2023-02-28T19:28:28;20.10;;;9.53;;
13374;SDS011;6756;51.354;15.754;2023-02-28T19:32:32;16.37;;;8.77;;
13374;SDS011;6756;51.354;15.754;2023-02-28T19:36:33;14.67;;;8.00;;
13374;SDS011;6756;51.354;15.754;2023-02-28T19:40:34;16.80;;;8.17;;
13374;SDS011;6756;51.354;15.754;2023-02-28T19:44:35;16.17;;;8.57;;
13374;SDS011;6756;51.354;15.754;2023-02-28T19:48:36;19.80;;;8.67;;
13374;SDS011;6756;51.354;15.754;2023-02-28T19:52:37;19.03;;;8.87;;
13374;SDS011;6756;51.354;15.754;2023-02-28T19:56:38;15.57;;;8.10;;
13374;SDS011;6756;51.354;15.754;2023-02-28T20:00:39;16.77;;;8.13;;
13374;SDS011;6756;51.354;15.754;2023-02-28T20:04:40;14.97;;;8.17;;
13374;SDS011;6756;51.354;15.754;2023-02-28T20:08:41;14.30;;;7.40;;
13374;SDS011;6756;51.354;15.754;2023-02-28T20:12:43;18.50;;;8.43;;
13374;SDS011;6756;51.354;15.754;2023-02-28T20:16:43;18.07;;;9.03;;
13374;SDS011;6756;51.354;15.754;2023-02-28T20:20:45;14.20;;;7.97;;
13374;SDS011;6756;51.354;15.754;2023-02-28T20:24:46;16.90;;;8.33;;
13374;SDS011;6756;51.354;15.754;2023-02-28T20:28:47;14.40;;;7.83;;
13374;SDS011;6756;51.354;15.754;2023-02-28T20:32:48;17.60;;;8.80;;
13374;SDS011;6756;51.354;15.754;2023-02-28T20:36:49;16.80;;;8.70;;
13374;SDS011;6756;51.354;15.754;2023-02-28T20:40:53;13.37;;;7.47;;
13374;SDS011;6756;51.354;15.754;2023-02-28T20:44:55;15.33;;;8.33;;
13374;SDS011;6756;51.354;15.754;2023-02-28T20:48:56;14.53;;;8.03;;
13374;SDS011;6756;51.354;15.754;2023-02-28T20:52:57;159.87;;;36.43;;
13374;SDS011;6756;51.354;15.754;2023-02-28T20:56:58;222.20;;;49.10;;
13374;SDS011;6756;51.354;15.754;2023-02-28T21:05:16;54.90;;;15.87;;
13374;SDS011;6756;51.354;15.754;2023-02-28T21:09:17;29.23;;;10.77;;
13374;SDS011;6756;51.354;15.754;2023-02-28T21:13:18;17.70;;;9.07;;
13374;SDS011;6756;51.354;15.754;2023-02-28T21:17:18;15.50;;;8.63;;
13374;SDS011;6756;51.354;15.754;2023-02-28T21:21:21;14.90;;;8.83;;
13374;SDS011;6756;51.354;15.754;2023-02-28T21:25:23;21.00;;;9.40;;
13374;SDS011;6756;51.354;15.754;2023-02-28T21:29:24;39.73;;;14.33;;
13374;SDS011;6756;51.354;15.754;2023-02-28T21:33:25;30.70;;;12.93;;
13374;SDS011;6756;51.354;15.754;2023-02-28T21:37:26;24.33;;;11.50;;
13374;SDS011;6756;51.354;15.754;2023-02-28T21:41:27;17.23;;;9.27;;
13374;SDS011;6756;51.354;15.754;2023-02-28T21:45:28;17.00;;;9.13;;
13374;SDS011;6756;51.354;15.754;2023-02-28T21:49:29;34.20;;;13.03;;
13374;SDS011;6756;51.354;15.754;2023-02-28T21:53:30;159.30;;;42.03;;
13374;SDS011;6756;51.354;15.754;2023-02-28T21:57:32;49.60;;;20.93;;
13374;SDS011;6756;51.354;15.754;2023-02-28T22:05:37;31.37;;;16.10;;
13374;SDS011;6756;51.354;15.754;2023-02-28T22:09:38;47.17;;;23.83;;
13374;SDS011;6756;51.354;15.754;2023-02-28T22:13:39;45.50;;;21.40;;
13374;SDS011;6756;51.354;15.754;2023-02-28T22:17:40;33.27;;;15.17;;
13374;SDS011;6756;51.354;15.754;2023-02-28T22:21:41;26.07;;;12.73;;
13374;SDS011;6756;51.354;15.754;2023-02-28T22:25:44;21.53;;;11.77;;
13374;SDS011;6756;51.354;15.754;2023-02-28T22:29:44;24.43;;;10.87;;
13374;SDS011;6756;51.354;15.754;2023-02-28T22:33:46;20.93;;;10.13;;
13374;SDS011;6756;51.354;15.754;2023-02-28T22:37:47;27.70;;;12.93;;
13374;SDS011;6756;51.354;15.754;2023-02-28T22:41:48;39.93;;;16.17;;
13374;SDS011;6756;51.354;15.754;2023-02-28T22:45:49;49.80;;;19.90;;
13374;SDS011;6756;51.354;15.754;2023-02-28T22:49:50;61.80;;;25.87;;
13374;SDS011;6756;51.354;15.754;2023-02-28T22:53:51;70.57;;;27.07;;
13374;SDS011;6756;51.354;15.754;2023-02-28T22:57:53;86.73;;;35.80;;
13374;SDS011;6756;51.354;15.754;2023-02-28T23:01:54;83.00;;;34.90;;
13374;SDS011;6756;51.354;15.754;2023-02-28T23:05:55;75.63;;;31.53;;
13374;SDS011;6756;51.354;15.754;2023-02-28T23:09:56;63.33;;;27.13;;
13374;SDS011;6756;51.354;15.754;2023-02-28T23:13:56;52.73;;;23.33;;
13374;SDS011;6756;51.354;15.754;2023-02-28T23:17:58;58.00;;;23.47;;
13374;SDS011;6756;51.354;15.754;2023-02-28T23:22:00;41.30;;;17.43;;
13374;SDS011;6756;51.354;15.754;2023-02-28T23:26:05;42.37;;;17.97;;
13374;SDS011;6756;51.354;15.754;2023-02-28T23:30:07;41.93;;;18.70;;
13374;SDS011;6756;51.354;15.754;2023-02-28T23:34:10;45.93;;;18.20;;
13374;SDS011;6756;51.354;15.754;2023-02-28T23:38:11;43.27;;;18.87;;
13374;SDS011;6756;51.354;15.754;2023-02-28T23:42:12;49.67;;;22.40;;
13374;SDS011;6756;51.354;15.754;2023-02-28T23:46:14;58.93;;;23.27;;
13374;SDS011;6756;51.354;15.754;2023-02-28T23:50:17;55.17;;;23.77;;
13374;SDS011;6756;51.354;15.754;2023-02-28T23:54:17;51.23;;;22.67;;
13374;SDS011;6756;51.354;15.754;2023-02-28T23:58:18;48.27;;;22.63;;
